createdAt,value
2023-12-09T00:01:46.908Z,100772.94
2023-12-09T00:04:16.039Z,100765.28
2023-12-09T00:06:50.501Z,100778.38
2023-12-09T00:09:21.965Z,100781.97
2023-12-09T00:11:51.331Z,100762.78
2023-12-09T00:14:20.277Z,100763.66
2023-12-09T00:16:50.111Z,100761.38
2023-12-09T00:19:19.320Z,100751.09
2023-12-09T00:21:48.149Z,100759.38
2023-12-09T00:24:17.475Z,100754.09
2023-12-09T00:26:46.262Z,100747.56
2023-12-09T00:29:16.288Z,100742.47
2023-12-09T00:31:45.332Z,100739.13
2023-12-09T00:34:13.859Z,100729.28
2023-12-09T00:36:43.636Z,100732.53
2023-12-09T00:39:13.618Z,100736.41
2023-12-09T00:41:42.518Z,100739.84
2023-12-09T00:44:11.548Z,100726.91
2023-12-09T00:46:39.921Z,100729.16
2023-12-09T00:49:08.745Z,100730.25
2023-12-09T00:51:37.653Z,100744.75
2023-12-09T00:54:07.710Z,100736.34
2023-12-09T00:56:36.252Z,100739.47
2023-12-09T00:59:07.392Z,100732.97
2023-12-09T01:01:38.789Z,100720.19
2023-12-09T01:04:09.187Z,100723.88
2023-12-09T01:06:37.917Z,100707.09
2023-12-09T01:09:06.938Z,100702.13
2023-12-09T01:11:35.981Z,100707.84
2023-12-09T01:14:05.022Z,100702.88
2023-12-09T01:16:35.272Z,100691.00
2023-12-09T01:19:05.049Z,100702.03
2023-12-09T01:21:34.175Z,100691.72
2023-12-09T01:24:03.150Z,100689.97
2023-12-09T01:26:33.240Z,100689.22
2023-12-09T01:29:04.509Z,100704.25
2023-12-09T01:31:34.251Z,100697.75
2023-12-09T01:34:02.962Z,100691.31
2023-12-09T01:36:32.416Z,100687.69
2023-12-09T01:39:00.861Z,100696.66
2023-12-09T01:41:33.420Z,100683.81
2023-12-09T01:44:01.836Z,100692.84
2023-12-09T01:46:30.861Z,100686.19
2023-12-09T01:48:59.137Z,100695.19
2023-12-09T01:51:28.362Z,100683.50
2023-12-09T01:53:58.192Z,100694.00
2023-12-09T01:56:26.830Z,100699.25
2023-12-09T01:58:56.098Z,100678.72
2023-12-09T02:01:26.004Z,100687.16
2023-12-09T02:03:56.827Z,100679.69
2023-12-09T02:06:26.228Z,100668.53
2023-12-09T02:08:56.468Z,100668.13
2023-12-09T02:11:41.950Z,100677.75
2023-12-09T02:14:22.014Z,100678.53
2023-12-09T02:16:56.244Z,100672.94
2023-12-09T02:19:25.907Z,100670.13
2023-12-09T02:22:03.135Z,100671.72
2023-12-09T02:24:33.486Z,100661.94
2023-12-09T02:27:15.442Z,100646.06
2023-12-09T02:30:06.405Z,100657.53
2023-12-09T02:32:37.573Z,100646.00
2023-12-09T02:35:08.663Z,100652.38
2023-12-09T02:37:42.520Z,100656.56
2023-12-09T02:40:13.374Z,100641.22
2023-12-09T02:42:44.940Z,100636.38
2023-12-09T02:45:13.909Z,100645.09
2023-12-09T02:47:42.294Z,100641.31
2023-12-09T02:50:10.939Z,100644.00
2023-12-09T02:52:39.936Z,100631.81
2023-12-09T02:55:09.465Z,100633.50
2023-12-09T02:57:39.430Z,100638.66
2023-12-09T03:00:09.535Z,100631.16
2023-12-09T03:02:39.605Z,100626.28
2023-12-09T03:05:10.258Z,100617.50
2023-12-09T03:07:38.672Z,100603.94
2023-12-09T03:10:09.680Z,100606.00
2023-12-09T03:12:40.767Z,100591.91
2023-12-09T03:15:11.023Z,100596.94
2023-12-09T03:17:40.908Z,100591.94
2023-12-09T03:20:10.824Z,100592.41
2023-12-09T03:22:39.822Z,100590.25
2023-12-09T03:25:09.891Z,100587.19
2023-12-09T03:27:38.994Z,100586.22
2023-12-09T03:30:08.339Z,100583.03
2023-12-09T03:32:41.059Z,100574.66
2023-12-09T03:35:14.306Z,100575.75
2023-12-09T03:37:43.635Z,100572.09
2023-12-09T03:40:12.117Z,100558.75
2023-12-09T03:42:42.208Z,100547.53
2023-12-09T03:45:11.180Z,100555.41
2023-12-09T03:47:39.295Z,100548.63
2023-12-09T03:50:08.939Z,100546.00
2023-12-09T03:52:38.317Z,100546.25
2023-12-09T03:55:08.403Z,100540.50
2023-12-09T03:57:37.741Z,100537.53
2023-12-09T04:00:09.405Z,100534.75
2023-12-09T04:02:38.444Z,100531.44
2023-12-09T04:05:08.557Z,100535.63
2023-12-09T04:07:38.583Z,100527.66
2023-12-09T04:10:08.233Z,100522.25
2023-12-09T04:12:38.202Z,100524.31
2023-12-09T04:15:08.682Z,100513.78
2023-12-09T04:17:40.780Z,100521.41
2023-12-09T04:20:11.892Z,100505.38
2023-12-09T04:22:44.262Z,100505.94
2023-12-09T04:25:12.854Z,100504.50
2023-12-09T04:27:41.889Z,100488.72
2023-12-09T04:30:11.229Z,100477.59
2023-12-09T04:32:40.199Z,100478.81
2023-12-09T04:35:11.027Z,100475.25
2023-12-09T04:37:40.306Z,100481.63
2023-12-09T04:40:15.089Z,100482.59
2023-12-09T04:42:45.412Z,100484.78
2023-12-09T04:45:14.398Z,100479.75
2023-12-09T04:47:43.490Z,100476.94
2023-12-09T04:50:13.163Z,100456.75
2023-12-09T04:52:42.170Z,100452.00
2023-12-09T04:55:11.244Z,100464.91
2023-12-09T04:57:41.177Z,100464.50
2023-12-09T05:00:12.581Z,100466.19
2023-12-09T05:02:42.262Z,100451.56
2023-12-09T05:05:12.347Z,100450.06
2023-12-09T05:07:44.579Z,100449.56
2023-12-09T05:10:14.396Z,100456.03
2023-12-09T05:12:43.448Z,100451.22
2023-12-09T05:15:12.748Z,100453.81
2023-12-09T05:17:41.815Z,100452.22
2023-12-09T05:20:12.441Z,100450.63
2023-12-09T05:22:40.709Z,100441.81
2023-12-09T05:25:10.836Z,100446.59
2023-12-09T05:27:40.669Z,100451.59
2023-12-09T05:30:12.029Z,100451.22
2023-12-09T05:32:42.780Z,100446.88
2023-12-09T05:35:12.060Z,100433.91
2023-12-09T05:37:41.156Z,100441.88
2023-12-09T05:40:11.900Z,100440.50
2023-12-09T05:42:42.532Z,100431.06
2023-12-09T05:45:12.023Z,100448.41
2023-12-09T05:47:41.083Z,100449.41
2023-12-09T05:50:12.528Z,100443.88
2023-12-09T05:52:42.427Z,100444.63
2023-12-09T05:55:11.402Z,100437.72
2023-12-09T05:57:40.424Z,100433.97
2023-12-09T06:00:14.220Z,100444.81
2023-12-09T06:02:45.442Z,100429.72
2023-12-09T06:05:15.184Z,100422.06
2023-12-09T06:07:43.271Z,100414.88
2023-12-09T06:10:14.606Z,100410.84
2023-12-09T06:12:44.376Z,100405.16
2023-12-09T06:15:13.840Z,100397.75
2023-12-09T06:17:44.986Z,100395.84
2023-12-09T06:20:14.495Z,100389.97
2023-12-09T06:22:43.502Z,100389.34
2023-12-09T06:25:12.549Z,100390.88
2023-12-09T06:27:41.577Z,100388.06
2023-12-09T06:30:12.479Z,100382.03
2023-12-09T06:32:42.713Z,100386.94
2023-12-09T06:35:11.841Z,100371.47
2023-12-09T06:37:40.875Z,100349.72
2023-12-09T06:40:11.634Z,100338.19
2023-12-09T06:42:41.679Z,100341.94
2023-12-09T06:45:11.709Z,100334.31
2023-12-09T06:47:40.884Z,100343.88
2023-12-09T06:50:09.823Z,100342.09
2023-12-09T06:52:38.870Z,100335.25
2023-12-09T06:55:08.896Z,100329.06
2023-12-09T06:57:38.022Z,100321.22
2023-12-09T07:00:09.994Z,100318.53
2023-12-09T07:02:56.553Z,100308.84
2023-12-09T07:05:37.349Z,100309.66
2023-12-09T07:08:16.033Z,100283.75
2023-12-09T07:10:50.045Z,100294.88
2023-12-09T07:13:24.158Z,100296.94
2023-12-09T07:15:57.106Z,100285.97
2023-12-09T07:18:32.487Z,100273.09
2023-12-09T07:21:02.326Z,100269.47
2023-12-09T07:23:31.311Z,100275.97
2023-12-09T07:26:01.470Z,100262.31
2023-12-09T07:28:32.350Z,100253.56
2023-12-09T07:31:04.283Z,100241.97
2023-12-09T07:33:34.568Z,100240.50
2023-12-09T07:36:03.650Z,100239.59
2023-12-09T07:38:34.395Z,100248.31
2023-12-09T07:41:03.735Z,100255.00
2023-12-09T07:43:40.354Z,100245.28
2023-12-09T07:46:17.732Z,100240.38
2023-12-09T07:48:51.759Z,100230.34
2023-12-09T07:51:24.667Z,100235.56
2023-12-09T07:53:56.615Z,100234.16
2023-12-09T07:56:33.560Z,100225.06
2023-12-09T07:59:07.868Z,100219.56
2023-12-09T08:01:43.671Z,100211.44
2023-12-09T08:04:18.823Z,100201.59
2023-12-09T08:06:58.254Z,100201.88
2023-12-09T08:09:32.764Z,100194.28
2023-12-09T08:12:09.773Z,100195.03
2023-12-09T08:14:44.797Z,100186.78
2023-12-09T08:17:19.835Z,100181.56
2023-12-09T08:19:51.952Z,100173.28
2023-12-09T08:22:24.494Z,100174.50
2023-12-09T08:25:00.528Z,100175.00
2023-12-09T08:27:38.177Z,100173.66
2023-12-09T08:30:14.973Z,100155.78
2023-12-09T08:32:51.130Z,100141.56
2023-12-09T08:35:27.143Z,100156.28
2023-12-09T08:38:05.400Z,100164.38
2023-12-09T08:40:40.213Z,100166.41
2023-12-09T08:43:18.254Z,100163.00
2023-12-09T08:45:56.342Z,100140.69
2023-12-09T08:48:35.243Z,100131.94
2023-12-09T08:51:12.457Z,100132.69
2023-12-09T08:53:50.667Z,100122.25
2023-12-09T08:56:32.008Z,100115.00
2023-12-09T08:59:16.519Z,100101.75
2023-12-09T09:01:56.087Z,100103.13
2023-12-09T09:04:36.831Z,100097.31
2023-12-09T09:07:16.165Z,100090.91
2023-12-09T09:09:57.697Z,100077.66
2023-12-09T09:12:37.837Z,100062.31
2023-12-09T09:15:18.817Z,100062.41
2023-12-09T09:17:58.899Z,100058.91
2023-12-09T09:20:40.887Z,100043.88
2023-12-09T09:23:19.862Z,100029.16
2023-12-09T09:26:01.447Z,100024.47
2023-12-09T09:28:41.242Z,100018.22
2023-12-09T09:31:22.477Z,99998.44
2023-12-09T09:34:04.139Z,100006.34
2023-12-09T09:36:44.002Z,99993.81
2023-12-09T09:39:24.019Z,99967.50
2023-12-09T09:42:32.009Z,99973.38
2023-12-09T09:45:31.616Z,99971.19
2023-12-09T09:48:18.188Z,99965.38
2023-12-09T09:51:01.142Z,99951.69
2023-12-09T09:53:53.208Z,99951.34
2023-12-09T09:56:30.473Z,99949.63
2023-12-09T09:59:08.136Z,99958.22
2023-12-09T10:01:42.310Z,99952.19
2023-12-09T10:04:19.333Z,99951.34
2023-12-09T10:06:52.375Z,99930.31
2023-12-09T10:09:25.053Z,99928.72
2023-12-09T10:11:58.638Z,99920.94
2023-12-09T10:14:30.637Z,99894.50
2023-12-09T10:17:02.721Z,99898.97
2023-12-09T10:19:38.511Z,99886.50
2023-12-09T10:22:13.060Z,99881.63
2023-12-09T10:24:53.534Z,99867.25
2023-12-09T10:27:27.697Z,99860.41
2023-12-09T10:30:00.009Z,99852.97
2023-12-09T10:32:39.164Z,99831.66
2023-12-09T10:35:15.630Z,99819.94
2023-12-09T10:37:57.628Z,99812.25
2023-12-09T10:40:36.181Z,99796.31
2023-12-09T10:43:14.932Z,99780.88
2023-12-09T10:45:55.973Z,99775.00
2023-12-09T10:48:36.099Z,99751.19
2023-12-09T10:51:17.949Z,99735.88
2023-12-09T10:53:57.071Z,99728.94
2023-12-09T10:56:37.834Z,99714.16
2023-12-09T10:59:15.854Z,99681.38
2023-12-09T11:01:58.893Z,99675.41
2023-12-09T11:04:38.830Z,99677.16
2023-12-09T11:07:17.933Z,99638.94
2023-12-09T11:09:56.847Z,99633.63
2023-12-09T11:12:33.982Z,99621.09
2023-12-09T11:15:22.173Z,99593.00
2023-12-09T11:18:01.697Z,99578.69
2023-12-09T11:20:35.203Z,99554.72
2023-12-09T11:23:06.111Z,99541.31
2023-12-09T11:25:38.147Z,99537.72
2023-12-09T11:28:09.412Z,99533.19
2023-12-09T11:30:44.324Z,99532.66
2023-12-09T11:33:13.729Z,99528.13
2023-12-09T11:35:45.213Z,99522.47
2023-12-09T11:38:17.410Z,99525.66
2023-12-09T11:40:51.166Z,99506.06
2023-12-09T11:43:23.277Z,99493.44
2023-12-09T11:45:56.381Z,99455.09
2023-12-09T11:48:31.351Z,99454.75
2023-12-09T11:51:10.715Z,99446.97
2023-12-09T11:53:57.801Z,99438.28
2023-12-09T11:56:36.401Z,99422.31
2023-12-09T11:59:16.583Z,99407.53
2023-12-09T12:01:53.637Z,99399.94
2023-12-09T12:04:38.902Z,99394.25
2023-12-09T12:07:18.606Z,99378.06
2023-12-09T12:09:58.535Z,99373.38
2023-12-09T12:12:37.720Z,99366.28
2023-12-09T12:15:14.821Z,99354.50
2023-12-09T12:17:54.777Z,99342.63
2023-12-09T12:20:31.843Z,99339.06
2023-12-09T12:23:14.128Z,99322.63
2023-12-09T12:25:59.938Z,99316.41
2023-12-09T12:28:35.837Z,99300.88
2023-12-09T12:31:15.140Z,99299.47
2023-12-09T12:33:50.184Z,99288.31
2023-12-09T12:36:28.604Z,99275.41
2023-12-09T12:39:04.324Z,99262.69
2023-12-09T12:41:42.163Z,99246.94
2023-12-09T12:44:21.600Z,99232.44
2023-12-09T12:47:02.098Z,99245.59
2023-12-09T12:49:41.460Z,99236.22
2023-12-09T12:52:22.678Z,99214.34
2023-12-09T12:55:01.150Z,99213.97
2023-12-09T12:57:44.300Z,99199.81
2023-12-09T13:00:24.406Z,99184.41
2023-12-09T13:03:01.293Z,99170.06
2023-12-09T13:05:38.685Z,99150.50
2023-12-09T13:08:17.297Z,99134.34
2023-12-09T13:10:54.368Z,99118.44
2023-12-09T13:13:28.658Z,99117.16
2023-12-09T13:16:06.565Z,99098.28
2023-12-09T13:18:43.609Z,99090.03
2023-12-09T13:21:21.452Z,99075.91
2023-12-09T13:23:59.656Z,99075.63
2023-12-09T13:26:36.637Z,99067.78
2023-12-09T13:29:12.661Z,99049.59
2023-12-09T13:31:51.602Z,99063.38
2023-12-09T13:34:31.947Z,99042.28
2023-12-09T13:37:12.760Z,99029.03
2023-12-09T13:39:52.920Z,99013.03
2023-12-09T13:42:33.367Z,98991.31
2023-12-09T13:45:16.990Z,98984.25
2023-12-09T13:47:56.817Z,98978.84
2023-12-09T13:50:40.480Z,98967.81
2023-12-09T13:53:20.936Z,98967.22
2023-12-09T13:56:31.944Z,98933.28
2023-12-09T14:02:16.151Z,98932.34
2023-12-09T14:04:56.404Z,98928.13
2023-12-09T14:07:38.236Z,98925.41
2023-12-09T14:10:19.467Z,98918.00
2023-12-09T14:12:57.319Z,98905.81
2023-12-09T14:15:38.151Z,98907.56
2023-12-09T14:18:15.455Z,98895.56
2023-12-09T14:20:56.335Z,98888.47
2023-12-09T14:23:35.333Z,98881.28
2023-12-09T14:26:15.394Z,98880.25
2023-12-09T14:28:52.270Z,98872.28
2023-12-09T14:31:26.160Z,98866.44
2023-12-09T14:33:59.900Z,98866.91
2023-12-09T14:36:37.492Z,98863.19
2023-12-09T14:39:15.878Z,98853.63
2023-12-09T14:41:52.816Z,98856.63
2023-12-09T14:44:31.600Z,98851.88
2023-12-09T14:47:09.880Z,98851.06
2023-12-09T14:49:47.696Z,98851.94
2023-12-09T14:52:27.106Z,98829.16
2023-12-09T14:55:05.031Z,98834.16
2023-12-09T14:57:44.798Z,98822.00
2023-12-09T15:00:22.134Z,98837.22
2023-12-09T15:03:01.890Z,98819.22
2023-12-09T15:05:42.916Z,98823.22
2023-12-09T15:08:21.891Z,98819.22
2023-12-09T15:11:02.922Z,98803.78
2023-12-09T15:13:42.963Z,98809.50
2023-12-09T15:16:24.289Z,98816.50
2023-12-09T15:19:04.285Z,98805.13
2023-12-09T15:21:43.360Z,98820.47
2023-12-09T15:24:21.157Z,98806.81
2023-12-09T15:26:59.118Z,98814.63
2023-12-09T15:29:35.213Z,98817.47
2023-12-09T15:32:13.170Z,98826.16
2023-12-09T15:34:51.850Z,98821.78
2023-12-09T15:37:30.570Z,98833.25
2023-12-09T15:40:13.208Z,98821.22
2023-12-09T15:42:50.407Z,98832.38
2023-12-09T15:45:26.487Z,98835.44
2023-12-09T15:48:06.625Z,98836.03
2023-12-09T15:50:42.508Z,98840.44
2023-12-09T15:53:20.492Z,98818.91
2023-12-09T15:55:57.570Z,98818.56
2023-12-09T15:58:32.282Z,98818.28
2023-12-09T16:01:08.105Z,98831.06
2023-12-09T16:03:42.782Z,98819.34
2023-12-09T16:06:15.808Z,98823.00
2023-12-09T16:08:48.808Z,98820.31
2023-12-09T16:11:21.793Z,98832.63
2023-12-09T16:13:57.830Z,98835.16
2023-12-09T16:16:33.849Z,98838.69
2023-12-09T16:19:12.236Z,98837.09
2023-12-09T16:21:47.861Z,98856.28
2023-12-09T16:24:23.968Z,98857.31
2023-12-09T16:26:59.097Z,98862.88
2023-12-09T16:29:35.480Z,98867.00
2023-12-09T16:32:11.924Z,98857.13
2023-12-09T16:34:51.303Z,98855.97
2023-12-09T16:37:36.984Z,98861.09
2023-12-09T16:40:16.284Z,98872.16
2023-12-09T16:42:58.145Z,98860.09
2023-12-09T16:45:40.415Z,98834.88
2023-12-09T16:48:20.509Z,98837.72
2023-12-09T16:51:01.738Z,98838.56
2023-12-09T16:53:40.258Z,98840.78
2023-12-09T16:56:20.309Z,98843.66
2023-12-09T16:58:59.733Z,98850.38
2023-12-09T17:01:40.719Z,98851.34
2023-12-09T17:04:17.730Z,98854.09
2023-12-09T17:06:57.662Z,98857.50
2023-12-09T17:09:33.793Z,98874.78
2023-12-09T17:12:09.842Z,98898.19
2023-12-09T17:14:45.806Z,98895.03
2023-12-09T17:17:18.888Z,98901.59
2023-12-09T17:19:53.954Z,98894.53
2023-12-09T17:22:28.247Z,98891.44
2023-12-09T17:25:03.005Z,98892.13
2023-12-09T17:27:39.015Z,98887.59
2023-12-09T17:30:16.286Z,98892.59
2023-12-09T17:32:50.390Z,98886.25
2023-12-09T17:35:21.069Z,98888.16
2023-12-09T17:37:53.079Z,98886.19
2023-12-09T17:40:22.202Z,98881.44
2023-12-09T17:42:56.493Z,98892.28
2023-12-09T17:45:29.774Z,98889.09
2023-12-09T17:48:03.317Z,98895.59
2023-12-09T17:50:38.578Z,98896.16
2023-12-09T17:53:12.275Z,98896.72
2023-12-09T17:55:48.253Z,98891.19
2023-12-09T17:58:23.571Z,98897.97
2023-12-09T18:00:57.579Z,98892.53
2023-12-09T18:03:34.495Z,98911.41
2023-12-09T18:06:14.471Z,98913.34
2023-12-09T18:08:55.475Z,98922.13
2023-12-09T18:11:31.541Z,98916.78
2023-12-09T18:14:09.795Z,98921.06
2023-12-09T18:16:44.620Z,98934.41
2023-12-09T18:19:24.740Z,98935.06
2023-12-09T18:22:00.643Z,98958.38
2023-12-09T18:24:33.069Z,98966.66
2023-12-09T18:27:08.248Z,98977.09
2023-12-09T18:29:38.518Z,98985.22
2023-12-09T18:32:19.037Z,99006.44
2023-12-09T18:34:52.055Z,99024.44
2023-12-09T18:37:25.266Z,99043.44
2023-12-09T18:39:58.336Z,99046.88
2023-12-09T18:42:32.313Z,99050.59
2023-12-09T18:49:28.401Z,99079.63
2023-12-09T18:52:02.456Z,99101.34
2023-12-09T18:54:41.266Z,99096.53
2023-12-09T18:57:18.662Z,99134.00
2023-12-09T18:59:57.383Z,99134.00
2023-12-09T19:02:37.203Z,99159.44
2023-12-09T19:05:17.469Z,99166.34
2023-12-09T19:07:58.446Z,99190.56
2023-12-09T19:10:38.554Z,99193.78
2023-12-09T19:13:18.511Z,99190.56
2023-12-09T19:15:59.463Z,99195.69
2023-12-09T19:18:39.698Z,99199.28
2023-12-09T19:21:19.639Z,99213.56
2023-12-09T19:24:00.638Z,99203.19
2023-12-09T19:26:44.673Z,99210.50
2023-12-09T19:29:24.670Z,99232.25
2023-12-09T19:32:09.452Z,99233.56
2023-12-09T19:34:48.361Z,99238.91
2023-12-09T19:37:24.852Z,99249.31
2023-12-09T19:40:01.630Z,99252.38
2023-12-09T19:42:37.074Z,99274.53
2023-12-09T19:45:17.733Z,99274.81
2023-12-09T19:47:49.192Z,99263.47
2023-12-09T19:50:27.920Z,99269.63
2023-12-09T19:53:19.456Z,99281.28
2023-12-09T19:56:25.268Z,99288.66
2023-12-09T19:59:36.580Z,99315.53
2023-12-09T20:06:12.422Z,99317.78
2023-12-09T20:08:58.359Z,99313.88
2023-12-09T20:11:28.412Z,99332.63
2023-12-09T20:13:59.617Z,99318.06
2023-12-09T20:16:30.452Z,99329.28
2023-12-09T20:19:06.564Z,99335.38
2023-12-09T20:21:40.710Z,99345.53
2023-12-09T20:24:12.406Z,99346.16
2023-12-09T20:26:52.376Z,99350.06
2023-12-09T20:29:24.499Z,99353.91
2023-12-09T20:31:57.497Z,99349.72
2023-12-09T20:34:27.682Z,99362.13
2023-12-09T20:37:01.617Z,99367.19
2023-12-09T20:39:30.021Z,99379.91
2023-12-09T20:41:56.985Z,99377.50
2023-12-09T20:44:26.964Z,99391.63
2023-12-09T20:46:57.099Z,99390.69
2023-12-09T20:49:27.759Z,99406.47
2023-12-09T20:51:57.826Z,99416.81
2023-12-09T20:54:29.247Z,99415.06
2023-12-09T20:57:00.943Z,99431.22
2023-12-09T20:59:32.466Z,99438.28
2023-12-09T21:02:04.695Z,99444.63
2023-12-09T21:04:37.700Z,99448.72
2023-12-09T21:07:15.635Z,99456.91
2023-12-09T21:09:53.291Z,99476.03
2023-12-09T21:12:26.422Z,99471.47
2023-12-09T21:15:00.994Z,99465.97
2023-12-09T21:17:34.530Z,99480.03
2023-12-09T21:20:09.509Z,99471.69
2023-12-09T21:22:42.463Z,99487.66
2023-12-09T21:25:18.431Z,99497.41
2023-12-09T21:27:51.413Z,99495.53
2023-12-09T21:30:26.181Z,99502.03
2023-12-09T21:32:59.447Z,99509.03
2023-12-09T21:35:34.125Z,99519.13
2023-12-09T21:38:06.996Z,99530.13
2023-12-09T21:40:41.369Z,99546.75
2023-12-09T21:43:14.638Z,99544.59
2023-12-09T21:45:49.183Z,99545.25
2023-12-09T21:48:25.580Z,99552.81
2023-12-09T21:51:06.342Z,99559.75
2023-12-09T21:53:42.891Z,99563.63
2023-12-09T21:56:39.052Z,99571.44
2023-12-09T21:59:16.402Z,99569.75
2023-12-09T22:01:55.235Z,99582.81
2023-12-09T22:04:34.255Z,99584.00
2023-12-09T22:07:11.971Z,99588.66
2023-12-09T22:09:48.259Z,99592.56
2023-12-09T22:12:22.085Z,99602.31
2023-12-09T22:14:53.445Z,99601.41
2023-12-09T22:17:26.404Z,99617.56
2023-12-09T22:19:56.539Z,99617.19
2023-12-09T22:22:23.370Z,99624.09
2023-12-09T22:24:50.213Z,99626.06
2023-12-09T22:27:17.728Z,99633.63
2023-12-09T22:29:44.618Z,99631.06
2023-12-09T22:32:11.507Z,99649.88
2023-12-09T22:34:38.521Z,99658.38
2023-12-09T22:37:05.450Z,99654.84
2023-12-09T22:39:32.806Z,99660.97
2023-12-09T22:42:00.033Z,99667.47
2023-12-09T22:44:30.180Z,99670.75
2023-12-09T22:47:01.567Z,99668.56
2023-12-09T22:49:33.622Z,99677.22
2023-12-09T22:52:05.263Z,99682.59
2023-12-09T22:54:38.298Z,99677.81
2023-12-09T22:57:17.756Z,99675.94
2023-12-09T22:59:54.069Z,99675.47
2023-12-09T23:02:31.696Z,99688.59
2023-12-09T23:05:07.817Z,99691.19
2023-12-09T23:07:45.205Z,99698.84
2023-12-09T23:10:21.533Z,99696.13
2023-12-09T23:12:59.145Z,99702.47
2023-12-09T23:15:37.190Z,99720.81
2023-12-09T23:18:22.843Z,99729.31
2023-12-09T23:20:53.816Z,99729.53
2023-12-09T23:23:29.149Z,99738.00
2023-12-09T23:25:59.078Z,99741.31
2023-12-09T23:28:34.837Z,99739.78
2023-12-09T23:31:03.814Z,99745.75
2023-12-09T23:33:32.849Z,99741.50
2023-12-09T23:36:00.023Z,99751.75
2023-12-09T23:38:26.918Z,99756.00
2023-12-09T23:40:53.921Z,99750.69
2023-12-09T23:43:20.652Z,99755.13
2023-12-09T23:45:47.700Z,99748.59
2023-12-09T23:48:18.631Z,99763.91
2023-12-09T23:50:46.038Z,99757.25
2023-12-09T23:53:13.745Z,99778.16
2023-12-09T23:55:41.233Z,99765.78
2023-12-09T23:58:09.430Z,99773.28
